createdAt,value
2022-08-07T00:04:42.637Z,15.70
2022-08-07T00:14:50.375Z,15.50
2022-08-07T00:24:52.606Z,15.50
2022-08-07T00:34:55.261Z,15.30
2022-08-07T00:44:57.512Z,15.30
2022-08-07T00:55:04.618Z,15.30
2022-08-07T01:05:19.134Z,15.10
2022-08-07T01:16:00.581Z,15.10
2022-08-07T01:25:55.176Z,14.90
2022-08-07T01:36:06.255Z,14.90
2022-08-07T01:46:15.615Z,14.70
2022-08-07T01:57:05.547Z,14.60
2022-08-07T02:07:12.366Z,14.70
2022-08-07T02:17:27.529Z,14.50
2022-08-07T02:27:36.328Z,14.40
2022-08-07T02:37:44.641Z,14.40
2022-08-07T02:47:52.775Z,14.40
2022-08-07T02:58:00.575Z,14.20
2022-08-07T03:08:07.530Z,14.20
2022-08-07T03:18:17.509Z,14.20
2022-08-07T03:28:48.122Z,14.10
2022-08-07T03:50:56.009Z,14.10
2022-08-07T04:01:07.615Z,14.00
2022-08-07T04:12:27.851Z,14.20
2022-08-07T04:21:38.403Z,14.30
2022-08-07T04:32:03.240Z,14.10
2022-08-07T04:42:04.967Z,14.60
2022-08-07T04:52:33.010Z,14.80
2022-08-07T05:04:06.517Z,15.40
2022-08-07T05:38:08.732Z,17.50
2022-08-07T06:00:01.651Z,17.90
2022-08-07T06:10:15.384Z,18.80
2022-08-07T06:20:25.507Z,20.10
2022-08-07T06:30:45.906Z,20.60
2022-08-07T06:40:55.442Z,20.70
2022-08-07T06:51:08.301Z,20.70
2022-08-07T07:01:14.144Z,22.40
2022-08-07T07:12:08.389Z,21.40
2022-08-07T07:22:05.242Z,22.70
2022-08-07T07:32:09.645Z,22.20
2022-08-07T07:42:17.668Z,20.70
2022-08-07T07:52:24.105Z,19.80
2022-08-07T08:02:35.429Z,19.40
2022-08-07T08:24:35.034Z,19.70
2022-08-07T08:34:49.030Z,20.10
2022-08-07T08:45:58.337Z,19.80
2022-08-07T08:55:58.822Z,19.70
2022-08-07T09:06:11.472Z,19.40
2022-08-07T09:16:37.577Z,20.10
2022-08-07T09:26:51.045Z,20.30
2022-08-07T09:37:08.062Z,20.00
2022-08-07T09:48:00.863Z,20.50
2022-08-07T09:58:32.214Z,19.90
2022-08-07T10:09:15.220Z,19.80
2022-08-07T10:19:31.517Z,19.80
2022-08-07T10:30:06.254Z,19.80
2022-08-07T10:40:21.224Z,20.10
2022-08-07T10:50:50.152Z,20.80
2022-08-07T11:01:35.172Z,20.30
2022-08-07T11:12:03.468Z,20.30
2022-08-07T11:22:36.143Z,21.10
2022-08-07T11:33:08.114Z,21.10
2022-08-07T11:43:41.363Z,21.70
2022-08-07T11:54:02.126Z,21.50
2022-08-07T12:04:31.769Z,21.60
2022-08-07T12:14:44.147Z,22.00
2022-08-07T12:26:00.281Z,21.90
2022-08-07T12:35:41.198Z,21.60
2022-08-07T12:46:01.389Z,21.10
2022-08-07T12:56:09.961Z,22.00
2022-08-07T13:06:34.165Z,21.70
2022-08-07T13:17:02.556Z,21.80
2022-08-07T13:27:25.344Z,22.20
2022-08-07T13:38:24.978Z,22.20
2022-08-07T13:48:34.651Z,21.80
2022-08-07T13:58:42.685Z,21.40
2022-08-07T14:54:47.175Z,22.00
2022-08-07T15:05:19.591Z,21.70
2022-08-07T15:15:52.722Z,21.20
2022-08-07T15:38:18.158Z,21.50
2022-08-07T15:49:03.742Z,21.70
2022-08-07T15:59:19.698Z,21.80
2022-08-07T16:09:52.084Z,21.30
2022-08-07T16:20:03.513Z,21.20
2022-08-07T16:30:29.618Z,21.10
2022-08-07T16:41:02.406Z,21.10
2022-08-07T16:51:54.289Z,21.00
2022-08-07T17:01:46.645Z,20.90
2022-08-07T17:12:04.176Z,20.80
2022-08-07T17:22:30.041Z,20.70
2022-08-07T17:33:39.261Z,20.50
2022-08-07T17:44:01.906Z,20.40
2022-08-07T17:54:13.035Z,20.20
2022-08-07T18:04:40.191Z,19.90
2022-08-07T18:14:58.826Z,19.80
2022-08-07T18:25:19.322Z,19.50
2022-08-07T18:36:06.089Z,19.20
2022-08-07T18:46:27.322Z,19.10
2022-08-07T18:56:40.967Z,18.80
2022-08-07T19:07:20.654Z,18.60
2022-08-07T19:18:01.100Z,18.30
2022-08-07T19:28:58.565Z,18.00
2022-08-07T19:38:53.185Z,17.80
2022-08-07T19:49:58.135Z,17.60
2022-08-07T20:00:29.268Z,17.30
2022-08-07T21:07:54.963Z,16.50
2022-08-07T21:39:46.441Z,16.00
2022-08-07T21:50:51.428Z,16.00
2022-08-07T22:23:49.639Z,15.50
2022-08-07T23:26:50.049Z,14.60
2022-08-07T23:37:30.784Z,14.50
2022-08-07T23:48:20.756Z,14.40
